<?xml version="1.0" encoding="UTF-8" standalone="no" ?>
<gpx xmlns="http://www.topografix.com/GPX/1/1" xmlns:xsi="http://www.w3.org/2001/XMLSchema-instance" xsi:schemaLocation="http://www.topografix.com/GPX/1/1 http://www.topografix.com/GPX/1/1/gpx.xsd" version="1.1" creator="VisuGPX - https://www.visugpx.com">
  <metadata>
    <name>Circuits Saint Front - Ferme de Cambres</name>
    <desc><![CDATA[Pour info]]></desc>
  </metadata>
  <wpt lat="44.59307" lon="0.92272">
    <ele>234.1</ele>
    <name><![CDATA[GR36]]></name>
    <desc><![CDATA[Liaison]]></desc>
    <type><![CDATA[activite]]></type>
  </wpt>
  <trk>
    <name><![CDATA[Circuits Saint Front - Ferme de Cambres_12]]></name>
    <extensions>
      <line xmlns="http://www.topografix.com/GPX/gpx_style/0/2">
        <color>880088</color>
        <width>4</width>
      </line>
    </extensions>
    <trkseg>
      <trkpt lat="44.63712" lon="0.74346">
        <ele>102</ele>
        <time>2019-06-08T11:57:17Z</time>
      </trkpt>
      <trkpt lat="44.63719" lon="0.74375">
        <ele>102</ele>
        <time>2019-06-08T11:57:34Z</time>
      </trkpt>
      <trkpt lat="44.63709" lon="0.74382">
        <ele>102</ele>
        <time>2019-06-08T11:57:43Z</time>
      </trkpt>
      <trkpt lat="44.63688" lon="0.74409">
        <ele>104</ele>
        <time>2019-06-08T11:58:06Z</time>
      </trkpt>
      <trkpt lat="44.63696" lon="0.7443">
        <ele>103</ele>
        <time>2019-06-08T11:58:19Z</time>
      </trkpt>
      <trkpt lat="44.63686" lon="0.74437">
        <ele>103</ele>
        <time>2019-06-08T11:58:28Z</time>
      </trkpt>
      <trkpt lat="44.63646" lon="0.74479">
        <ele>103</ele>
        <time>2019-06-08T11:59:08Z</time>
      </trkpt>
      <trkpt lat="44.63638" lon="0.74479">
        <ele>103</ele>
        <time>2019-06-08T11:59:15Z</time>
      </trkpt>
      <trkpt lat="44.63597" lon="0.74515">
        <ele>103</ele>
        <time>2019-06-08T11:59:53Z</time>
      </trkpt>
      <trkpt lat="44.63588" lon="0.7451">
        <ele>104</ele>
        <time>2019-06-08T12:00:01Z</time>
      </trkpt>
      <trkpt lat="44.63551" lon="0.74473">
        <ele>105</ele>
        <time>2019-06-08T12:00:38Z</time>
      </trkpt>
      <trkpt lat="44.63542" lon="0.74468">
        <ele>105</ele>
        <time>2019-06-08T12:00:45Z</time>
      </trkpt>
      <trkpt lat="44.63531" lon="0.74472">
        <ele>105</ele>
        <time>2019-06-08T12:00:54Z</time>
      </trkpt>
      <trkpt lat="44.63488" lon="0.74505">
        <ele>106</ele>
        <time>2019-06-08T12:01:34Z</time>
      </trkpt>
      <trkpt lat="44.63459" lon="0.74521">
        <ele>107</ele>
        <time>2019-06-08T12:01:59Z</time>
      </trkpt>
      <trkpt lat="44.63451" lon="0.7453">
        <ele>107</ele>
        <time>2019-06-08T12:02:07Z</time>
      </trkpt>
      <trkpt lat="44.6343" lon="0.74544">
        <ele>108</ele>
        <time>2019-06-08T12:02:25Z</time>
      </trkpt>
      <trkpt lat="44.6342" lon="0.74548">
        <ele>108</ele>
        <time>2019-06-08T12:02:34Z</time>
      </trkpt>
      <trkpt lat="44.63372" lon="0.74585">
        <ele>108</ele>
        <time>2019-06-08T12:03:18Z</time>
      </trkpt>
      <trkpt lat="44.63329" lon="0.74606">
        <ele>107</ele>
        <time>2019-06-08T12:03:54Z</time>
      </trkpt>
      <trkpt lat="44.63306" lon="0.74611">
        <ele>104</ele>
        <time>2019-06-08T12:04:13Z</time>
      </trkpt>
      <trkpt lat="44.63249" lon="0.74612">
        <ele>97</ele>
        <time>2019-06-08T12:04:58Z</time>
      </trkpt>
      <trkpt lat="44.63173" lon="0.74608">
        <ele>91</ele>
        <time>2019-06-08T12:05:59Z</time>
      </trkpt>
      <trkpt lat="44.63145" lon="0.74614">
        <ele>91</ele>
        <time>2019-06-08T12:06:22Z</time>
      </trkpt>
      <trkpt lat="44.63107" lon="0.74629">
        <ele>91</ele>
        <time>2019-06-08T12:06:53Z</time>
      </trkpt>
      <trkpt lat="44.63088" lon="0.74639">
        <ele>91</ele>
        <time>2019-06-08T12:07:10Z</time>
      </trkpt>
      <trkpt lat="44.63079" lon="0.74647">
        <ele>91</ele>
        <time>2019-06-08T12:07:18Z</time>
      </trkpt>
      <trkpt lat="44.6302" lon="0.74735">
        <ele>92</ele>
        <time>2019-06-08T12:08:27Z</time>
      </trkpt>
      <trkpt lat="44.6295" lon="0.74827">
        <ele>94</ele>
        <time>2019-06-08T12:09:44Z</time>
      </trkpt>
      <trkpt lat="44.62887" lon="0.74897">
        <ele>96</ele>
        <time>2019-06-08T12:10:48Z</time>
      </trkpt>
      <trkpt lat="44.62855" lon="0.74929">
        <ele>98</ele>
        <time>2019-06-08T12:11:20Z</time>
      </trkpt>
      <trkpt lat="44.62811" lon="0.7498">
        <ele>98</ele>
        <time>2019-06-08T12:12:05Z</time>
      </trkpt>
      <trkpt lat="44.62771" lon="0.75032">
        <ele>98</ele>
        <time>2019-06-08T12:12:49Z</time>
      </trkpt>
      <trkpt lat="44.62739" lon="0.75067">
        <ele>99</ele>
        <time>2019-06-08T12:13:21Z</time>
      </trkpt>
      <trkpt lat="44.62721" lon="0.7508">
        <ele>99</ele>
        <time>2019-06-08T12:13:38Z</time>
      </trkpt>
      <trkpt lat="44.62717" lon="0.75088">
        <ele>99</ele>
        <time>2019-06-08T12:13:43Z</time>
      </trkpt>
      <trkpt lat="44.62708" lon="0.75092">
        <ele>99</ele>
        <time>2019-06-08T12:13:51Z</time>
      </trkpt>
      <trkpt lat="44.62651" lon="0.75133">
        <ele>100</ele>
        <time>2019-06-08T12:14:42Z</time>
      </trkpt>
      <trkpt lat="44.62587" lon="0.75195">
        <ele>102</ele>
        <time>2019-06-08T12:15:44Z</time>
      </trkpt>
      <trkpt lat="44.62563" lon="0.75223">
        <ele>103</ele>
        <time>2019-06-08T12:16:09Z</time>
      </trkpt>
      <trkpt lat="44.62442" lon="0.75399">
        <ele>107</ele>
        <time>2019-06-08T12:18:29Z</time>
      </trkpt>
      <trkpt lat="44.62419" lon="0.75423">
        <ele>107</ele>
        <time>2019-06-08T12:18:52Z</time>
      </trkpt>
      <trkpt lat="44.62409" lon="0.75429">
        <ele>107</ele>
        <time>2019-06-08T12:19:00Z</time>
      </trkpt>
      <trkpt lat="44.62383" lon="0.75444">
        <ele>106</ele>
        <time>2019-06-08T12:19:23Z</time>
      </trkpt>
      <trkpt lat="44.62353" lon="0.75451">
        <ele>105</ele>
        <time>2019-06-08T12:19:47Z</time>
      </trkpt>
      <trkpt lat="44.62333" lon="0.75452">
        <ele>105</ele>
        <time>2019-06-08T12:20:03Z</time>
      </trkpt>
      <trkpt lat="44.6233" lon="0.7545">
        <ele>105</ele>
        <time>2019-06-08T12:20:06Z</time>
      </trkpt>
      <trkpt lat="44.62321" lon="0.75454">
        <ele>105</ele>
        <time>2019-06-08T12:20:13Z</time>
      </trkpt>
      <trkpt lat="44.62292" lon="0.75456">
        <ele>106</ele>
        <time>2019-06-08T12:20:37Z</time>
      </trkpt>
      <trkpt lat="44.62282" lon="0.75459">
        <ele>106</ele>
        <time>2019-06-08T12:20:45Z</time>
      </trkpt>
      <trkpt lat="44.62243" lon="0.7546">
        <ele>107</ele>
        <time>2019-06-08T12:21:16Z</time>
      </trkpt>
      <trkpt lat="44.62234" lon="0.75457">
        <ele>107</ele>
        <time>2019-06-08T12:21:24Z</time>
      </trkpt>
      <trkpt lat="44.62175" lon="0.75463">
        <ele>108</ele>
        <time>2019-06-08T12:22:11Z</time>
      </trkpt>
      <trkpt lat="44.62106" lon="0.75456">
        <ele>109</ele>
        <time>2019-06-08T12:23:06Z</time>
      </trkpt>
      <trkpt lat="44.62086" lon="0.75451">
        <ele>110</ele>
        <time>2019-06-08T12:23:23Z</time>
      </trkpt>
      <trkpt lat="44.62067" lon="0.75451">
        <ele>110</ele>
        <time>2019-06-08T12:23:38Z</time>
      </trkpt>
      <trkpt lat="44.61999" lon="0.7544">
        <ele>111</ele>
        <time>2019-06-08T12:24:33Z</time>
      </trkpt>
      <trkpt lat="44.61996" lon="0.75436">
        <ele>111</ele>
        <time>2019-06-08T12:24:36Z</time>
      </trkpt>
      <trkpt lat="44.61988" lon="0.7544">
        <ele>111</ele>
        <time>2019-06-08T12:24:43Z</time>
      </trkpt>
      <trkpt lat="44.61968" lon="0.75439">
        <ele>111</ele>
        <time>2019-06-08T12:24:59Z</time>
      </trkpt>
      <trkpt lat="44.61899" lon="0.75445">
        <ele>111</ele>
        <time>2019-06-08T12:25:54Z</time>
      </trkpt>
      <trkpt lat="44.61759" lon="0.75427">
        <ele>117</ele>
        <time>2019-06-08T12:27:47Z</time>
      </trkpt>
      <trkpt lat="44.61718" lon="0.75427">
        <ele>117</ele>
        <time>2019-06-08T12:28:19Z</time>
      </trkpt>
      <trkpt lat="44.61545" lon="0.75438">
        <ele>126</ele>
        <time>2019-06-08T12:30:38Z</time>
      </trkpt>
      <trkpt lat="44.61534" lon="0.75437">
        <ele>128</ele>
        <time>2019-06-08T12:30:47Z</time>
      </trkpt>
      <trkpt lat="44.61504" lon="0.75443">
        <ele>133</ele>
        <time>2019-06-08T12:31:11Z</time>
      </trkpt>
      <trkpt lat="44.61473" lon="0.75439">
        <ele>135</ele>
        <time>2019-06-08T12:31:36Z</time>
      </trkpt>
      <trkpt lat="44.61439" lon="0.75438">
        <ele>138</ele>
        <time>2019-06-08T12:32:03Z</time>
      </trkpt>
      <trkpt lat="44.61432" lon="0.75446">
        <ele>138</ele>
        <time>2019-06-08T12:32:11Z</time>
      </trkpt>
      <trkpt lat="44.61405" lon="0.75552">
        <ele>137</ele>
        <time>2019-06-08T12:33:15Z</time>
      </trkpt>
      <trkpt lat="44.61391" lon="0.75596">
        <ele>136</ele>
        <time>2019-06-08T12:33:42Z</time>
      </trkpt>
      <trkpt lat="44.6138" lon="0.75623">
        <ele>134</ele>
        <time>2019-06-08T12:34:00Z</time>
      </trkpt>
      <trkpt lat="44.61363" lon="0.75648">
        <ele>133</ele>
        <time>2019-06-08T12:34:20Z</time>
      </trkpt>
      <trkpt lat="44.61355" lon="0.75677">
        <ele>132</ele>
        <time>2019-06-08T12:34:37Z</time>
      </trkpt>
      <trkpt lat="44.61372" lon="0.75714">
        <ele>130</ele>
        <time>2019-06-08T12:35:02Z</time>
      </trkpt>
      <trkpt lat="44.61415" lon="0.75765">
        <ele>126</ele>
        <time>2019-06-08T12:35:48Z</time>
      </trkpt>
      <trkpt lat="44.61435" lon="0.75797">
        <ele>124</ele>
        <time>2019-06-08T12:36:12Z</time>
      </trkpt>
      <trkpt lat="44.61474" lon="0.75912">
        <ele>120</ele>
        <time>2019-06-08T12:37:24Z</time>
      </trkpt>
      <trkpt lat="44.61479" lon="0.7594">
        <ele>120</ele>
        <time>2019-06-08T12:37:41Z</time>
      </trkpt>
      <trkpt lat="44.61479" lon="0.75957">
        <ele>120</ele>
        <time>2019-06-08T12:37:51Z</time>
      </trkpt>
      <trkpt lat="44.61462" lon="0.76044">
        <ele>126</ele>
        <time>2019-06-08T12:38:42Z</time>
      </trkpt>
      <trkpt lat="44.61465" lon="0.76073">
        <ele>128</ele>
        <time>2019-06-08T12:38:59Z</time>
      </trkpt>
      <trkpt lat="44.61471" lon="0.76085">
        <ele>129</ele>
        <time>2019-06-08T12:39:07Z</time>
      </trkpt>
      <trkpt lat="44.61506" lon="0.76117">
        <ele>129</ele>
        <time>2019-06-08T12:39:40Z</time>
      </trkpt>
      <trkpt lat="44.61513" lon="0.76127">
        <ele>130</ele>
        <time>2019-06-08T12:39:48Z</time>
      </trkpt>
      <trkpt lat="44.61517" lon="0.76139">
        <ele>131</ele>
        <time>2019-06-08T12:39:56Z</time>
      </trkpt>
      <trkpt lat="44.61517" lon="0.76155">
        <ele>132</ele>
        <time>2019-06-08T12:40:05Z</time>
      </trkpt>
      <trkpt lat="44.61531" lon="0.7626">
        <ele>134</ele>
        <time>2019-06-08T12:41:06Z</time>
      </trkpt>
      <trkpt lat="44.61549" lon="0.76293">
        <ele>135</ele>
        <time>2019-06-08T12:41:30Z</time>
      </trkpt>
      <trkpt lat="44.61548" lon="0.76307">
        <ele>135</ele>
        <time>2019-06-08T12:41:38Z</time>
      </trkpt>
      <trkpt lat="44.61544" lon="0.7632">
        <ele>136</ele>
        <time>2019-06-08T12:41:46Z</time>
      </trkpt>
      <trkpt lat="44.61536" lon="0.76335">
        <ele>137</ele>
        <time>2019-06-08T12:41:56Z</time>
      </trkpt>
      <trkpt lat="44.61537" lon="0.76348">
        <ele>138</ele>
        <time>2019-06-08T12:42:04Z</time>
      </trkpt>
      <trkpt lat="44.61566" lon="0.76347">
        <ele>137</ele>
        <time>2019-06-08T12:42:27Z</time>
      </trkpt>
      <trkpt lat="44.61576" lon="0.76354">
        <ele>137</ele>
        <time>2019-06-08T12:42:36Z</time>
      </trkpt>
      <trkpt lat="44.6158" lon="0.76368">
        <ele>138</ele>
        <time>2019-06-08T12:42:45Z</time>
      </trkpt>
      <trkpt lat="44.6158" lon="0.76397">
        <ele>139</ele>
        <time>2019-06-08T12:43:01Z</time>
      </trkpt>
      <trkpt lat="44.61607" lon="0.76431">
        <ele>141</ele>
        <time>2019-06-08T12:43:30Z</time>
      </trkpt>
      <trkpt lat="44.61618" lon="0.76436">
        <ele>141</ele>
        <time>2019-06-08T12:43:40Z</time>
      </trkpt>
      <trkpt lat="44.61669" lon="0.76443">
        <ele>143</ele>
        <time>2019-06-08T12:44:21Z</time>
      </trkpt>
      <trkpt lat="44.6171" lon="0.76453">
        <ele>147</ele>
        <time>2019-06-08T12:44:54Z</time>
      </trkpt>
      <trkpt lat="44.61771" lon="0.76482">
        <ele>150</ele>
        <time>2019-06-08T12:45:45Z</time>
      </trkpt>
      <trkpt lat="44.61779" lon="0.76489">
        <ele>150</ele>
        <time>2019-06-08T12:45:53Z</time>
      </trkpt>
      <trkpt lat="44.61781" lon="0.76502">
        <ele>150</ele>
        <time>2019-06-08T12:46:01Z</time>
      </trkpt>
      <trkpt lat="44.61774" lon="0.76514">
        <ele>150</ele>
        <time>2019-06-08T12:46:09Z</time>
      </trkpt>
      <trkpt lat="44.61746" lon="0.7654">
        <ele>151</ele>
        <time>2019-06-08T12:46:36Z</time>
      </trkpt>
      <trkpt lat="44.61706" lon="0.76607">
        <ele>149</ele>
        <time>2019-06-08T12:47:26Z</time>
      </trkpt>
      <trkpt lat="44.61663" lon="0.76667">
        <ele>151</ele>
        <time>2019-06-08T12:48:15Z</time>
      </trkpt>
      <trkpt lat="44.61582" lon="0.76769">
        <ele>152</ele>
        <time>2019-06-08T12:49:42Z</time>
      </trkpt>
      <trkpt lat="44.61556" lon="0.76816">
        <ele>154</ele>
        <time>2019-06-08T12:50:16Z</time>
      </trkpt>
      <trkpt lat="44.61536" lon="0.76864">
        <ele>156</ele>
        <time>2019-06-08T12:50:47Z</time>
      </trkpt>
      <trkpt lat="44.61497" lon="0.76945">
        <ele>159</ele>
        <time>2019-06-08T12:51:43Z</time>
      </trkpt>
      <trkpt lat="44.61479" lon="0.76995">
        <ele>160</ele>
        <time>2019-06-08T12:52:15Z</time>
      </trkpt>
      <trkpt lat="44.61471" lon="0.77037">
        <ele>162</ele>
        <time>2019-06-08T12:52:40Z</time>
      </trkpt>
      <trkpt lat="44.61461" lon="0.77059">
        <ele>163</ele>
        <time>2019-06-08T12:52:55Z</time>
      </trkpt>
      <trkpt lat="44.61436" lon="0.771">
        <ele>165</ele>
        <time>2019-06-08T12:53:25Z</time>
      </trkpt>
      <trkpt lat="44.61435" lon="0.77114">
        <ele>166</ele>
        <time>2019-06-08T12:53:33Z</time>
      </trkpt>
      <trkpt lat="44.6144" lon="0.77131">
        <ele>165</ele>
        <time>2019-06-08T12:53:44Z</time>
      </trkpt>
      <trkpt lat="44.61447" lon="0.77144">
        <ele>165</ele>
        <time>2019-06-08T12:53:53Z</time>
      </trkpt>
      <trkpt lat="44.61483" lon="0.77199">
        <ele>159</ele>
        <time>2019-06-08T12:54:36Z</time>
      </trkpt>
      <trkpt lat="44.6154" lon="0.77254">
        <ele>154</ele>
        <time>2019-06-08T12:55:31Z</time>
      </trkpt>
      <trkpt lat="44.61587" lon="0.77291">
        <ele>153</ele>
        <time>2019-06-08T12:56:14Z</time>
      </trkpt>
      <trkpt lat="44.6167" lon="0.77371">
        <ele>155</ele>
        <time>2019-06-08T12:57:35Z</time>
      </trkpt>
      <trkpt lat="44.61707" lon="0.77413">
        <ele>155</ele>
        <time>2019-06-08T12:58:13Z</time>
      </trkpt>
      <trkpt lat="44.61843" lon="0.7759">
        <ele>152</ele>
        <time>2019-06-08T13:00:41Z</time>
      </trkpt>
      <trkpt lat="44.61875" lon="0.77626">
        <ele>152</ele>
        <time>2019-06-08T13:01:14Z</time>
      </trkpt>
      <trkpt lat="44.61908" lon="0.77658">
        <ele>153</ele>
        <time>2019-06-08T13:01:46Z</time>
      </trkpt>
      <trkpt lat="44.61914" lon="0.77668">
        <ele>153</ele>
        <time>2019-06-08T13:01:54Z</time>
      </trkpt>
      <trkpt lat="44.61916" lon="0.7768">
        <ele>153</ele>
        <time>2019-06-08T13:02:01Z</time>
      </trkpt>
      <trkpt lat="44.61912" lon="0.77739">
        <ele>153</ele>
        <time>2019-06-08T13:02:35Z</time>
      </trkpt>
      <trkpt lat="44.61888" lon="0.77892">
        <ele>152</ele>
        <time>2019-06-08T13:04:04Z</time>
      </trkpt>
      <trkpt lat="44.61881" lon="0.77917">
        <ele>151</ele>
        <time>2019-06-08T13:04:19Z</time>
      </trkpt>
      <trkpt lat="44.61842" lon="0.78013">
        <ele>148</ele>
        <time>2019-06-08T13:05:22Z</time>
      </trkpt>
      <trkpt lat="44.61828" lon="0.78066">
        <ele>148</ele>
        <time>2019-06-08T13:05:54Z</time>
      </trkpt>
      <trkpt lat="44.61827" lon="0.7808">
        <ele>147</ele>
        <time>2019-06-08T13:06:02Z</time>
      </trkpt>
      <trkpt lat="44.6183" lon="0.78106">
        <ele>148</ele>
        <time>2019-06-08T13:06:17Z</time>
      </trkpt>
      <trkpt lat="44.61854" lon="0.7815">
        <ele>151</ele>
        <time>2019-06-08T13:06:49Z</time>
      </trkpt>
      <trkpt lat="44.61858" lon="0.78162">
        <ele>151</ele>
        <time>2019-06-08T13:06:57Z</time>
      </trkpt>
      <trkpt lat="44.61886" lon="0.78283">
        <ele>154</ele>
        <time>2019-06-08T13:08:09Z</time>
      </trkpt>
      <trkpt lat="44.61888" lon="0.78295">
        <ele>155</ele>
        <time>2019-06-08T13:08:16Z</time>
      </trkpt>
      <trkpt lat="44.61887" lon="0.78309">
        <ele>155</ele>
        <time>2019-06-08T13:08:24Z</time>
      </trkpt>
      <trkpt lat="44.61865" lon="0.78428">
        <ele>159</ele>
        <time>2019-06-08T13:09:34Z</time>
      </trkpt>
      <trkpt lat="44.61808" lon="0.78651">
        <ele>165</ele>
        <time>2019-06-08T13:11:49Z</time>
      </trkpt>
      <trkpt lat="44.61804" lon="0.78663">
        <ele>165</ele>
        <time>2019-06-08T13:11:57Z</time>
      </trkpt>
      <trkpt lat="44.61791" lon="0.78684">
        <ele>165</ele>
        <time>2019-06-08T13:12:13Z</time>
      </trkpt>
      <trkpt lat="44.61769" lon="0.78712">
        <ele>165</ele>
        <time>2019-06-08T13:12:36Z</time>
      </trkpt>
      <trkpt lat="44.61767" lon="0.78723">
        <ele>165</ele>
        <time>2019-06-08T13:12:43Z</time>
      </trkpt>
      <trkpt lat="44.61751" lon="0.78744">
        <ele>164</ele>
        <time>2019-06-08T13:13:00Z</time>
      </trkpt>
      <trkpt lat="44.61745" lon="0.78757">
        <ele>163</ele>
        <time>2019-06-08T13:13:09Z</time>
      </trkpt>
      <trkpt lat="44.61749" lon="0.7877">
        <ele>162</ele>
        <time>2019-06-08T13:13:17Z</time>
      </trkpt>
      <trkpt lat="44.61762" lon="0.78794">
        <ele>160</ele>
        <time>2019-06-08T13:13:35Z</time>
      </trkpt>
      <trkpt lat="44.61782" lon="0.78842">
        <ele>157</ele>
        <time>2019-06-08T13:14:06Z</time>
      </trkpt>
      <trkpt lat="44.61799" lon="0.78876">
        <ele>155</ele>
        <time>2019-06-08T13:14:30Z</time>
      </trkpt>
      <trkpt lat="44.61825" lon="0.78952">
        <ele>150</ele>
        <time>2019-06-08T13:15:18Z</time>
      </trkpt>
      <trkpt lat="44.61834" lon="0.78991">
        <ele>148</ele>
        <time>2019-06-08T13:15:41Z</time>
      </trkpt>
      <trkpt lat="44.61839" lon="0.79003">
        <ele>148</ele>
        <time>2019-06-08T13:15:49Z</time>
      </trkpt>
      <trkpt lat="44.61867" lon="0.79043">
        <ele>152</ele>
        <time>2019-06-08T13:16:21Z</time>
      </trkpt>
      <trkpt lat="44.61872" lon="0.79055">
        <ele>153</ele>
        <time>2019-06-08T13:16:29Z</time>
      </trkpt>
      <trkpt lat="44.61879" lon="0.79082">
        <ele>155</ele>
        <time>2019-06-08T13:16:46Z</time>
      </trkpt>
      <trkpt lat="44.61877" lon="0.79094">
        <ele>156</ele>
        <time>2019-06-08T13:16:53Z</time>
      </trkpt>
      <trkpt lat="44.61863" lon="0.79128">
        <ele>156</ele>
        <time>2019-06-08T13:17:15Z</time>
      </trkpt>
      <trkpt lat="44.61861" lon="0.79143">
        <ele>157</ele>
        <time>2019-06-08T13:17:24Z</time>
      </trkpt>
      <trkpt lat="44.61877" lon="0.79179">
        <ele>160</ele>
        <time>2019-06-08T13:17:48Z</time>
      </trkpt>
      <trkpt lat="44.61904" lon="0.79296">
        <ele>163</ele>
        <time>2019-06-08T13:18:58Z</time>
      </trkpt>
      <trkpt lat="44.61945" lon="0.79401">
        <ele>162</ele>
        <time>2019-06-08T13:20:06Z</time>
      </trkpt>
      <trkpt lat="44.6202" lon="0.79518">
        <ele>166</ele>
        <time>2019-06-08T13:21:36Z</time>
      </trkpt>
      <trkpt lat="44.6206" lon="0.79587">
        <ele>169</ele>
        <time>2019-06-08T13:22:27Z</time>
      </trkpt>
      <trkpt lat="44.62097" lon="0.79637">
        <ele>168</ele>
        <time>2019-06-08T13:23:08Z</time>
      </trkpt>
      <trkpt lat="44.62134" lon="0.79702">
        <ele>167</ele>
        <time>2019-06-08T13:23:55Z</time>
      </trkpt>
      <trkpt lat="44.62175" lon="0.79746">
        <ele>167</ele>
        <time>2019-06-08T13:24:37Z</time>
      </trkpt>
      <trkpt lat="44.62209" lon="0.79777">
        <ele>165</ele>
        <time>2019-06-08T13:25:09Z</time>
      </trkpt>
      <trkpt lat="44.62236" lon="0.79808">
        <ele>165</ele>
        <time>2019-06-08T13:25:37Z</time>
      </trkpt>
      <trkpt lat="44.62262" lon="0.79844">
        <ele>164</ele>
        <time>2019-06-08T13:26:06Z</time>
      </trkpt>
      <trkpt lat="44.62316" lon="0.79943">
        <ele>161</ele>
        <time>2019-06-08T13:27:17Z</time>
      </trkpt>
      <trkpt lat="44.62325" lon="0.79984">
        <ele>162</ele>
        <time>2019-06-08T13:27:42Z</time>
      </trkpt>
      <trkpt lat="44.62342" lon="0.80041">
        <ele>163</ele>
        <time>2019-06-08T13:28:17Z</time>
      </trkpt>
      <trkpt lat="44.62343" lon="0.80055">
        <ele>163</ele>
        <time>2019-06-08T13:28:25Z</time>
      </trkpt>
      <trkpt lat="44.62356" lon="0.80116">
        <ele>164</ele>
        <time>2019-06-08T13:29:01Z</time>
      </trkpt>
      <trkpt lat="44.62421" lon="0.80324">
        <ele>168</ele>
        <time>2019-06-08T13:31:11Z</time>
      </trkpt>
      <trkpt lat="44.62435" lon="0.80394">
        <ele>166</ele>
        <time>2019-06-08T13:31:52Z</time>
      </trkpt>
      <trkpt lat="44.62436" lon="0.80435">
        <ele>166</ele>
        <time>2019-06-08T13:32:15Z</time>
      </trkpt>
      <trkpt lat="44.62433" lon="0.80489">
        <ele>167</ele>
        <time>2019-06-08T13:32:46Z</time>
      </trkpt>
      <trkpt lat="44.6243" lon="0.80516">
        <ele>168</ele>
        <time>2019-06-08T13:33:02Z</time>
      </trkpt>
      <trkpt lat="44.62421" lon="0.80555">
        <ele>168</ele>
        <time>2019-06-08T13:33:25Z</time>
      </trkpt>
      <trkpt lat="44.62427" lon="0.80565">
        <ele>169</ele>
        <time>2019-06-08T13:33:33Z</time>
      </trkpt>
      <trkpt lat="44.62424" lon="0.80575">
        <ele>169</ele>
        <time>2019-06-08T13:33:39Z</time>
      </trkpt>
      <trkpt lat="44.62414" lon="0.80573">
        <ele>168</ele>
        <time>2019-06-08T13:33:47Z</time>
      </trkpt>
      <trkpt lat="44.62406" lon="0.80579">
        <ele>168</ele>
        <time>2019-06-08T13:33:54Z</time>
      </trkpt>
      <trkpt lat="44.62383" lon="0.80612">
        <ele>168</ele>
        <time>2019-06-08T13:34:21Z</time>
      </trkpt>
      <trkpt lat="44.62295" lon="0.80724">
        <ele>167</ele>
        <time>2019-06-08T13:35:56Z</time>
      </trkpt>
      <trkpt lat="44.62267" lon="0.80768">
        <ele>164</ele>
        <time>2019-06-08T13:36:29Z</time>
      </trkpt>
      <trkpt lat="44.62233" lon="0.80811">
        <ele>160</ele>
        <time>2019-06-08T13:37:06Z</time>
      </trkpt>
      <trkpt lat="44.62205" lon="0.80857">
        <ele>157</ele>
        <time>2019-06-08T13:37:40Z</time>
      </trkpt>
      <trkpt lat="44.62188" lon="0.80875">
        <ele>156</ele>
        <time>2019-06-08T13:37:57Z</time>
      </trkpt>
      <trkpt lat="44.62179" lon="0.80883">
        <ele>155</ele>
        <time>2019-06-08T13:38:06Z</time>
      </trkpt>
      <trkpt lat="44.62156" lon="0.80894">
        <ele>154</ele>
        <time>2019-06-08T13:38:25Z</time>
      </trkpt>
      <trkpt lat="44.62122" lon="0.80903">
        <ele>154</ele>
        <time>2019-06-08T13:38:53Z</time>
      </trkpt>
      <trkpt lat="44.62054" lon="0.80927">
        <ele>153</ele>
        <time>2019-06-08T13:39:49Z</time>
      </trkpt>
      <trkpt lat="44.62035" lon="0.80938">
        <ele>154</ele>
        <time>2019-06-08T13:40:06Z</time>
      </trkpt>
      <trkpt lat="44.6201" lon="0.80962">
        <ele>153</ele>
        <time>2019-06-08T13:40:30Z</time>
      </trkpt>
      <trkpt lat="44.61961" lon="0.81032">
        <ele>156</ele>
        <time>2019-06-08T13:41:26Z</time>
      </trkpt>
      <trkpt lat="44.61942" lon="0.81064">
        <ele>157</ele>
        <time>2019-06-08T13:41:50Z</time>
      </trkpt>
      <trkpt lat="44.6189" lon="0.81183">
        <ele>153</ele>
        <time>2019-06-08T13:43:09Z</time>
      </trkpt>
      <trkpt lat="44.61858" lon="0.8125">
        <ele>152</ele>
        <time>2019-06-08T13:43:55Z</time>
      </trkpt>
      <trkpt lat="44.61828" lon="0.81292">
        <ele>152</ele>
        <time>2019-06-08T13:44:29Z</time>
      </trkpt>
      <trkpt lat="44.61792" lon="0.81324">
        <ele>151</ele>
        <time>2019-06-08T13:45:03Z</time>
      </trkpt>
      <trkpt lat="44.6176" lon="0.81358">
        <ele>151</ele>
        <time>2019-06-08T13:45:35Z</time>
      </trkpt>
      <trkpt lat="44.61747" lon="0.81382">
        <ele>151</ele>
        <time>2019-06-08T13:45:53Z</time>
      </trkpt>
      <trkpt lat="44.61735" lon="0.81421">
        <ele>152</ele>
        <time>2019-06-08T13:46:17Z</time>
      </trkpt>
      <trkpt lat="44.61684" lon="0.81633">
        <ele>158</ele>
        <time>2019-06-08T13:48:24Z</time>
      </trkpt>
      <trkpt lat="44.61666" lon="0.81686">
        <ele>159</ele>
        <time>2019-06-08T13:48:58Z</time>
      </trkpt>
      <trkpt lat="44.61657" lon="0.81704">
        <ele>159</ele>
        <time>2019-06-08T13:49:10Z</time>
      </trkpt>
      <trkpt lat="44.61676" lon="0.81666">
        <ele>158</ele>
        <time>2019-06-08T13:49:37Z</time>
      </trkpt>
      <trkpt lat="44.61689" lon="0.81624">
        <ele>158</ele>
        <time>2019-06-08T13:50:03Z</time>
      </trkpt>
      <trkpt lat="44.61712" lon="0.81531">
        <ele>157</ele>
        <time>2019-06-08T13:50:59Z</time>
      </trkpt>
      <trkpt lat="44.61722" lon="0.815">
        <ele>156</ele>
        <time>2019-06-08T13:51:18Z</time>
      </trkpt>
      <trkpt lat="44.61734" lon="0.81425">
        <ele>152</ele>
        <time>2019-06-08T13:52:02Z</time>
      </trkpt>
      <trkpt lat="44.61746" lon="0.81388">
        <ele>151</ele>
        <time>2019-06-08T13:52:25Z</time>
      </trkpt>
      <trkpt lat="44.61768" lon="0.81353">
        <ele>151</ele>
        <time>2019-06-08T13:52:52Z</time>
      </trkpt>
      <trkpt lat="44.61792" lon="0.81326">
        <ele>151</ele>
        <time>2019-06-08T13:53:17Z</time>
      </trkpt>
      <trkpt lat="44.61811" lon="0.81311">
        <ele>152</ele>
        <time>2019-06-08T13:53:34Z</time>
      </trkpt>
      <trkpt lat="44.61818" lon="0.81318">
        <ele>153</ele>
        <time>2019-06-08T13:53:41Z</time>
      </trkpt>
      <trkpt lat="44.61824" lon="0.81332">
        <ele>153</ele>
        <time>2019-06-08T13:53:50Z</time>
      </trkpt>
      <trkpt lat="44.61848" lon="0.814">
        <ele>156</ele>
        <time>2019-06-08T13:54:33Z</time>
      </trkpt>
      <trkpt lat="44.61896" lon="0.8151">
        <ele>162</ele>
        <time>2019-06-08T13:55:47Z</time>
      </trkpt>
      <trkpt lat="44.61917" lon="0.81545">
        <ele>162</ele>
        <time>2019-06-08T13:56:13Z</time>
      </trkpt>
      <trkpt lat="44.61934" lon="0.81566">
        <ele>162</ele>
        <time>2019-06-08T13:56:31Z</time>
      </trkpt>
      <trkpt lat="44.61958" lon="0.81605">
        <ele>160</ele>
        <time>2019-06-08T13:57:01Z</time>
      </trkpt>
      <trkpt lat="44.61978" lon="0.81627">
        <ele>158</ele>
        <time>2019-06-08T13:57:21Z</time>
      </trkpt>
      <trkpt lat="44.61993" lon="0.81655">
        <ele>156</ele>
        <time>2019-06-08T13:57:41Z</time>
      </trkpt>
      <trkpt lat="44.62008" lon="0.81724">
        <ele>152</ele>
        <time>2019-06-08T13:58:22Z</time>
      </trkpt>
      <trkpt lat="44.62022" lon="0.81747">
        <ele>151</ele>
        <time>2019-06-08T13:58:39Z</time>
      </trkpt>
      <trkpt lat="44.62036" lon="0.81789">
        <ele>148</ele>
        <time>2019-06-08T13:59:06Z</time>
      </trkpt>
      <trkpt lat="44.62054" lon="0.8186">
        <ele>145</ele>
        <time>2019-06-08T13:59:49Z</time>
      </trkpt>
      <trkpt lat="44.62056" lon="0.81885">
        <ele>144</ele>
        <time>2019-06-08T14:00:03Z</time>
      </trkpt>
      <trkpt lat="44.62062" lon="0.81914">
        <ele>143</ele>
        <time>2019-06-08T14:00:20Z</time>
      </trkpt>
      <trkpt lat="44.62067" lon="0.81925">
        <ele>143</ele>
        <time>2019-06-08T14:00:28Z</time>
      </trkpt>
      <trkpt lat="44.62089" lon="0.81952">
        <ele>144</ele>
        <time>2019-06-08T14:00:51Z</time>
      </trkpt>
      <trkpt lat="44.62102" lon="0.81974">
        <ele>144</ele>
        <time>2019-06-08T14:01:07Z</time>
      </trkpt>
      <trkpt lat="44.62131" lon="0.82048">
        <ele>144</ele>
        <time>2019-06-08T14:01:55Z</time>
      </trkpt>
      <trkpt lat="44.62154" lon="0.82131">
        <ele>142</ele>
        <time>2019-06-08T14:02:46Z</time>
      </trkpt>
      <trkpt lat="44.62155" lon="0.82146">
        <ele>141</ele>
        <time>2019-06-08T14:02:55Z</time>
      </trkpt>
      <trkpt lat="44.62142" lon="0.82174">
        <ele>139</ele>
        <time>2019-06-08T14:03:14Z</time>
      </trkpt>
      <trkpt lat="44.62134" lon="0.82184">
        <ele>138</ele>
        <time>2019-06-08T14:03:22Z</time>
      </trkpt>
      <trkpt lat="44.62112" lon="0.82185">
        <ele>137</ele>
        <time>2019-06-08T14:03:40Z</time>
      </trkpt>
      <trkpt lat="44.62101" lon="0.82189">
        <ele>137</ele>
        <time>2019-06-08T14:03:49Z</time>
      </trkpt>
      <trkpt lat="44.62082" lon="0.82205">
        <ele>135</ele>
        <time>2019-06-08T14:04:07Z</time>
      </trkpt>
      <trkpt lat="44.62077" lon="0.82218">
        <ele>134</ele>
        <time>2019-06-08T14:04:15Z</time>
      </trkpt>
      <trkpt lat="44.62066" lon="0.82284">
        <ele>128</ele>
        <time>2019-06-08T14:04:54Z</time>
      </trkpt>
      <trkpt lat="44.62062" lon="0.82295">
        <ele>127</ele>
        <time>2019-06-08T14:05:01Z</time>
      </trkpt>
      <trkpt lat="44.62061" lon="0.82309">
        <ele>126</ele>
        <time>2019-06-08T14:05:09Z</time>
      </trkpt>
      <trkpt lat="44.62039" lon="0.82409">
        <ele>122</ele>
        <time>2019-06-08T14:06:09Z</time>
      </trkpt>
      <trkpt lat="44.61993" lon="0.82643">
        <ele>123</ele>
        <time>2019-06-08T14:08:27Z</time>
      </trkpt>
      <trkpt lat="44.62" lon="0.82652">
        <ele>123</ele>
        <time>2019-06-08T14:08:35Z</time>
      </trkpt>
      <trkpt lat="44.62029" lon="0.82675">
        <ele>124</ele>
        <time>2019-06-08T14:09:01Z</time>
      </trkpt>
      <trkpt lat="44.62055" lon="0.82709">
        <ele>125</ele>
        <time>2019-06-08T14:09:30Z</time>
      </trkpt>
      <trkpt lat="44.62067" lon="0.82737">
        <ele>126</ele>
        <time>2019-06-08T14:09:48Z</time>
      </trkpt>
      <trkpt lat="44.62094" lon="0.82819">
        <ele>126</ele>
        <time>2019-06-08T14:10:40Z</time>
      </trkpt>
      <trkpt lat="44.62118" lon="0.82871">
        <ele>126</ele>
        <time>2019-06-08T14:11:15Z</time>
      </trkpt>
      <trkpt lat="44.62143" lon="0.82896">
        <ele>125</ele>
        <time>2019-06-08T14:11:40Z</time>
      </trkpt>
      <trkpt lat="44.6219" lon="0.82925">
        <ele>124</ele>
        <time>2019-06-08T14:12:21Z</time>
      </trkpt>
      <trkpt lat="44.62199" lon="0.82933">
        <ele>125</ele>
        <time>2019-06-08T14:12:29Z</time>
      </trkpt>
      <trkpt lat="44.62217" lon="0.82952">
        <ele>125</ele>
        <time>2019-06-08T14:12:47Z</time>
      </trkpt>
      <trkpt lat="44.62237" lon="0.82983">
        <ele>125</ele>
        <time>2019-06-08T14:13:11Z</time>
      </trkpt>
      <trkpt lat="44.62272" lon="0.83051">
        <ele>127</ele>
        <time>2019-06-08T14:13:59Z</time>
      </trkpt>
      <trkpt lat="44.62287" lon="0.83087">
        <ele>127</ele>
        <time>2019-06-08T14:14:23Z</time>
      </trkpt>
      <trkpt lat="44.62297" lon="0.83128">
        <ele>128</ele>
        <time>2019-06-08T14:14:48Z</time>
      </trkpt>
      <trkpt lat="44.62301" lon="0.83156">
        <ele>129</ele>
        <time>2019-06-08T14:15:04Z</time>
      </trkpt>
      <trkpt lat="44.62303" lon="0.83198">
        <ele>129</ele>
        <time>2019-06-08T14:15:28Z</time>
      </trkpt>
      <trkpt lat="44.62293" lon="0.83224">
        <ele>130</ele>
        <time>2019-06-08T14:15:45Z</time>
      </trkpt>
      <trkpt lat="44.62274" lon="0.83246">
        <ele>130</ele>
        <time>2019-06-08T14:16:04Z</time>
      </trkpt>
      <trkpt lat="44.62255" lon="0.83278">
        <ele>132</ele>
        <time>2019-06-08T14:16:28Z</time>
      </trkpt>
      <trkpt lat="44.62218" lon="0.83317">
        <ele>134</ele>
        <time>2019-06-08T14:17:05Z</time>
      </trkpt>
      <trkpt lat="44.62204" lon="0.83339">
        <ele>135</ele>
        <time>2019-06-08T14:17:22Z</time>
      </trkpt>
      <trkpt lat="44.62195" lon="0.83387">
        <ele>137</ele>
        <time>2019-06-08T14:17:50Z</time>
      </trkpt>
      <trkpt lat="44.62197" lon="0.83415">
        <ele>139</ele>
        <time>2019-06-08T14:18:06Z</time>
      </trkpt>
      <trkpt lat="44.62167" lon="0.8349">
        <ele>144</ele>
        <time>2019-06-08T14:18:55Z</time>
      </trkpt>
      <trkpt lat="44.62153" lon="0.83544">
        <ele>147</ele>
        <time>2019-06-08T14:19:28Z</time>
      </trkpt>
      <trkpt lat="44.62147" lon="0.83582">
        <ele>149</ele>
        <time>2019-06-08T14:19:50Z</time>
      </trkpt>
      <trkpt lat="44.62128" lon="0.83631">
        <ele>151</ele>
        <time>2019-06-08T14:20:22Z</time>
      </trkpt>
      <trkpt lat="44.62125" lon="0.83644">
        <ele>151</ele>
        <time>2019-06-08T14:20:30Z</time>
      </trkpt>
      <trkpt lat="44.62128" lon="0.83658">
        <ele>152</ele>
        <time>2019-06-08T14:20:38Z</time>
      </trkpt>
      <trkpt lat="44.62143" lon="0.83674">
        <ele>151</ele>
        <time>2019-06-08T14:20:53Z</time>
      </trkpt>
      <trkpt lat="44.62149" lon="0.83684">
        <ele>151</ele>
        <time>2019-06-08T14:21:01Z</time>
      </trkpt>
      <trkpt lat="44.62166" lon="0.83698">
        <ele>150</ele>
        <time>2019-06-08T14:21:16Z</time>
      </trkpt>
      <trkpt lat="44.62185" lon="0.83707">
        <ele>150</ele>
        <time>2019-06-08T14:21:33Z</time>
      </trkpt>
      <trkpt lat="44.62202" lon="0.83722">
        <ele>150</ele>
        <time>2019-06-08T14:21:49Z</time>
      </trkpt>
      <trkpt lat="44.62242" lon="0.83786">
        <ele>151</ele>
        <time>2019-06-08T14:22:37Z</time>
      </trkpt>
      <trkpt lat="44.6225" lon="0.83794">
        <ele>152</ele>
        <time>2019-06-08T14:22:45Z</time>
      </trkpt>
      <trkpt lat="44.62278" lon="0.83807">
        <ele>151</ele>
        <time>2019-06-08T14:23:09Z</time>
      </trkpt>
      <trkpt lat="44.62294" lon="0.83821">
        <ele>151</ele>
        <time>2019-06-08T14:23:24Z</time>
      </trkpt>
      <trkpt lat="44.62329" lon="0.83872">
        <ele>151</ele>
        <time>2019-06-08T14:24:04Z</time>
      </trkpt>
      <trkpt lat="44.62346" lon="0.83885">
        <ele>152</ele>
        <time>2019-06-08T14:24:20Z</time>
      </trkpt>
      <trkpt lat="44.62374" lon="0.83897">
        <ele>154</ele>
        <time>2019-06-08T14:24:43Z</time>
      </trkpt>
      <trkpt lat="44.62384" lon="0.83899">
        <ele>154</ele>
        <time>2019-06-08T14:24:51Z</time>
      </trkpt>
      <trkpt lat="44.62423" lon="0.83904">
        <ele>157</ele>
        <time>2019-06-08T14:25:22Z</time>
      </trkpt>
      <trkpt lat="44.62443" lon="0.83902">
        <ele>157</ele>
        <time>2019-06-08T14:25:39Z</time>
      </trkpt>
      <trkpt lat="44.62492" lon="0.83919">
        <ele>157</ele>
        <time>2019-06-08T14:26:19Z</time>
      </trkpt>
      <trkpt lat="44.62503" lon="0.83926">
        <ele>157</ele>
        <time>2019-06-08T14:26:29Z</time>
      </trkpt>
      <trkpt lat="44.62521" lon="0.83945">
        <ele>156</ele>
        <time>2019-06-08T14:26:47Z</time>
      </trkpt>
      <trkpt lat="44.62527" lon="0.83955">
        <ele>156</ele>
        <time>2019-06-08T14:26:54Z</time>
      </trkpt>
      <trkpt lat="44.62545" lon="0.84065">
        <ele>153</ele>
        <time>2019-06-08T14:27:58Z</time>
      </trkpt>
      <trkpt lat="44.62551" lon="0.8412">
        <ele>152</ele>
        <time>2019-06-08T14:28:30Z</time>
      </trkpt>
      <trkpt lat="44.62547" lon="0.84134">
        <ele>152</ele>
        <time>2019-06-08T14:28:39Z</time>
      </trkpt>
      <trkpt lat="44.62492" lon="0.84194">
        <ele>149</ele>
        <time>2019-06-08T14:29:34Z</time>
      </trkpt>
      <trkpt lat="44.62403" lon="0.84303">
        <ele>145</ele>
        <time>2019-06-08T14:31:09Z</time>
      </trkpt>
      <trkpt lat="44.62377" lon="0.84326">
        <ele>144</ele>
        <time>2019-06-08T14:31:34Z</time>
      </trkpt>
      <trkpt lat="44.6234" lon="0.8435">
        <ele>143</ele>
        <time>2019-06-08T14:32:06Z</time>
      </trkpt>
      <trkpt lat="44.62327" lon="0.84371">
        <ele>144</ele>
        <time>2019-06-08T14:32:22Z</time>
      </trkpt>
      <trkpt lat="44.62319" lon="0.84397">
        <ele>145</ele>
        <time>2019-06-08T14:32:38Z</time>
      </trkpt>
      <trkpt lat="44.62313" lon="0.84455">
        <ele>147</ele>
        <time>2019-06-08T14:33:12Z</time>
      </trkpt>
      <trkpt lat="44.62296" lon="0.84504">
        <ele>149</ele>
        <time>2019-06-08T14:33:43Z</time>
      </trkpt>
      <trkpt lat="44.62291" lon="0.84533">
        <ele>150</ele>
        <time>2019-06-08T14:34:00Z</time>
      </trkpt>
      <trkpt lat="44.6229" lon="0.84578">
        <ele>151</ele>
        <time>2019-06-08T14:34:25Z</time>
      </trkpt>
      <trkpt lat="44.62296" lon="0.84606">
        <ele>152</ele>
        <time>2019-06-08T14:34:42Z</time>
      </trkpt>
      <trkpt lat="44.62323" lon="0.84689">
        <ele>155</ele>
        <time>2019-06-08T14:35:34Z</time>
      </trkpt>
      <trkpt lat="44.62333" lon="0.84733">
        <ele>157</ele>
        <time>2019-06-08T14:36:00Z</time>
      </trkpt>
      <trkpt lat="44.62386" lon="0.84903">
        <ele>164</ele>
        <time>2019-06-08T14:37:46Z</time>
      </trkpt>
      <trkpt lat="44.62424" lon="0.85005">
        <ele>165</ele>
        <time>2019-06-08T14:38:52Z</time>
      </trkpt>
      <trkpt lat="44.62431" lon="0.85017">
        <ele>166</ele>
        <time>2019-06-08T14:39:01Z</time>
      </trkpt>
      <trkpt lat="44.62439" lon="0.85023">
        <ele>166</ele>
        <time>2019-06-08T14:39:08Z</time>
      </trkpt>
      <trkpt lat="44.62449" lon="0.85023">
        <ele>167</ele>
        <time>2019-06-08T14:39:16Z</time>
      </trkpt>
      <trkpt lat="44.62519" lon="0.85037">
        <ele>171</ele>
        <time>2019-06-08T14:40:12Z</time>
      </trkpt>
      <trkpt lat="44.62653" lon="0.85095">
        <ele>175</ele>
        <time>2019-06-08T14:42:05Z</time>
      </trkpt>
      <trkpt lat="44.62697" lon="0.85105">
        <ele>177</ele>
        <time>2019-06-08T14:42:40Z</time>
      </trkpt>
      <trkpt lat="44.62758" lon="0.85125">
        <ele>182</ele>
        <time>2019-06-08T14:43:31Z</time>
      </trkpt>
      <trkpt lat="44.62801" lon="0.8515">
        <ele>183</ele>
        <time>2019-06-08T14:44:08Z</time>
      </trkpt>
      <trkpt lat="44.62861" lon="0.85172">
        <ele>186</ele>
        <time>2019-06-08T14:44:57Z</time>
      </trkpt>
      <trkpt lat="44.62871" lon="0.85172">
        <ele>187</ele>
        <time>2019-06-08T14:45:05Z</time>
      </trkpt>
      <trkpt lat="44.62989" lon="0.85224">
        <ele>190</ele>
        <time>2019-06-08T14:46:44Z</time>
      </trkpt>
      <trkpt lat="44.63049" lon="0.85246">
        <ele>190</ele>
        <time>2019-06-08T14:47:34Z</time>
      </trkpt>
      <trkpt lat="44.63076" lon="0.85259">
        <ele>190</ele>
        <time>2019-06-08T14:47:57Z</time>
      </trkpt>
      <trkpt lat="44.63098" lon="0.85277">
        <ele>189</ele>
        <time>2019-06-08T14:48:17Z</time>
      </trkpt>
      <trkpt lat="44.63113" lon="0.853">
        <ele>188</ele>
        <time>2019-06-08T14:48:35Z</time>
      </trkpt>
      <trkpt lat="44.63129" lon="0.85316">
        <ele>188</ele>
        <time>2019-06-08T14:48:51Z</time>
      </trkpt>
      <trkpt lat="44.63144" lon="0.85337">
        <ele>188</ele>
        <time>2019-06-08T14:49:08Z</time>
      </trkpt>
      <trkpt lat="44.63193" lon="0.85391">
        <ele>193</ele>
        <time>2019-06-08T14:49:58Z</time>
      </trkpt>
      <trkpt lat="44.63202" lon="0.85397">
        <ele>194</ele>
        <time>2019-06-08T14:50:06Z</time>
      </trkpt>
      <trkpt lat="44.6325" lon="0.85419">
        <ele>199</ele>
        <time>2019-06-08T14:50:46Z</time>
      </trkpt>
      <trkpt lat="44.6328" lon="0.85444">
        <ele>201</ele>
        <time>2019-06-08T14:51:14Z</time>
      </trkpt>
      <trkpt lat="44.63304" lon="0.85452">
        <ele>202</ele>
        <time>2019-06-08T14:51:34Z</time>
      </trkpt>
      <trkpt lat="44.63341" lon="0.85474">
        <ele>203</ele>
        <time>2019-06-08T14:52:06Z</time>
      </trkpt>
      <trkpt lat="44.63394" lon="0.85496">
        <ele>200</ele>
        <time>2019-06-08T14:52:50Z</time>
      </trkpt>
      <trkpt lat="44.6344" lon="0.85527">
        <ele>197</ele>
        <time>2019-06-08T14:53:31Z</time>
      </trkpt>
      <trkpt lat="44.6346" lon="0.85528">
        <ele>197</ele>
        <time>2019-06-08T14:53:47Z</time>
      </trkpt>
      <trkpt lat="44.63488" lon="0.85543">
        <ele>196</ele>
        <time>2019-06-08T14:54:11Z</time>
      </trkpt>
      <trkpt lat="44.635" lon="0.85547">
        <ele>195</ele>
        <time>2019-06-08T14:54:21Z</time>
      </trkpt>
      <trkpt lat="44.63515" lon="0.85556">
        <ele>195</ele>
        <time>2019-06-08T14:54:34Z</time>
      </trkpt>
      <trkpt lat="44.63558" lon="0.85605">
        <ele>193</ele>
        <time>2019-06-08T14:55:18Z</time>
      </trkpt>
      <trkpt lat="44.63598" lon="0.85626">
        <ele>190</ele>
        <time>2019-06-08T14:55:52Z</time>
      </trkpt>
      <trkpt lat="44.63626" lon="0.8565">
        <ele>188</ele>
        <time>2019-06-08T14:56:19Z</time>
      </trkpt>
      <trkpt lat="44.6369" lon="0.85663">
        <ele>184</ele>
        <time>2019-06-08T14:57:11Z</time>
      </trkpt>
      <trkpt lat="44.63715" lon="0.85702">
        <ele>183</ele>
        <time>2019-06-08T14:57:40Z</time>
      </trkpt>
      <trkpt lat="44.63742" lon="0.857">
        <ele>181</ele>
        <time>2019-06-08T14:58:02Z</time>
      </trkpt>
      <trkpt lat="44.63748" lon="0.85719">
        <ele>181</ele>
        <time>2019-06-08T14:58:14Z</time>
      </trkpt>
      <trkpt lat="44.6376" lon="0.85738">
        <ele>181</ele>
        <time>2019-06-08T14:58:28Z</time>
      </trkpt>
      <trkpt lat="44.63776" lon="0.85776">
        <ele>180</ele>
        <time>2019-06-08T14:58:54Z</time>
      </trkpt>
      <trkpt lat="44.63783" lon="0.85787">
        <ele>180</ele>
        <time>2019-06-08T14:59:02Z</time>
      </trkpt>
      <trkpt lat="44.63793" lon="0.85796">
        <ele>180</ele>
        <time>2019-06-08T14:59:11Z</time>
      </trkpt>
      <trkpt lat="44.6381" lon="0.85819">
        <ele>181</ele>
        <time>2019-06-08T14:59:30Z</time>
      </trkpt>
      <trkpt lat="44.63829" lon="0.85836">
        <ele>181</ele>
        <time>2019-06-08T14:59:48Z</time>
      </trkpt>
      <trkpt lat="44.63845" lon="0.85862">
        <ele>181</ele>
        <time>2019-06-08T15:00:08Z</time>
      </trkpt>
      <trkpt lat="44.63852" lon="0.85879">
        <ele>182</ele>
        <time>2019-06-08T15:00:19Z</time>
      </trkpt>
      <trkpt lat="44.63864" lon="0.85888">
        <ele>182</ele>
        <time>2019-06-08T15:00:30Z</time>
      </trkpt>
      <trkpt lat="44.63876" lon="0.85896">
        <ele>182</ele>
        <time>2019-06-08T15:00:41Z</time>
      </trkpt>
      <trkpt lat="44.63911" lon="0.85907">
        <ele>182</ele>
        <time>2019-06-08T15:01:09Z</time>
      </trkpt>
      <trkpt lat="44.63957" lon="0.85919">
        <ele>182</ele>
        <time>2019-06-08T15:01:47Z</time>
      </trkpt>
      <trkpt lat="44.63985" lon="0.85919">
        <ele>182</ele>
        <time>2019-06-08T15:02:09Z</time>
      </trkpt>
      <trkpt lat="44.64008" lon="0.85929">
        <ele>183</ele>
        <time>2019-06-08T15:02:29Z</time>
      </trkpt>
      <trkpt lat="44.64002" lon="0.85954">
        <ele>184</ele>
        <time>2019-06-08T15:02:44Z</time>
      </trkpt>
      <trkpt lat="44.63984" lon="0.85983">
        <ele>186</ele>
        <time>2019-06-08T15:03:06Z</time>
      </trkpt>
      <trkpt lat="44.63961" lon="0.86013">
        <ele>187</ele>
        <time>2019-06-08T15:03:31Z</time>
      </trkpt>
      <trkpt lat="44.6394" lon="0.86086">
        <ele>189</ele>
        <time>2019-06-08T15:04:15Z</time>
      </trkpt>
      <trkpt lat="44.63913" lon="0.86138">
        <ele>190</ele>
        <time>2019-06-08T15:04:52Z</time>
      </trkpt>
      <trkpt lat="44.63906" lon="0.86156">
        <ele>190</ele>
        <time>2019-06-08T15:05:04Z</time>
      </trkpt>
      <trkpt lat="44.63889" lon="0.86181">
        <ele>191</ele>
        <time>2019-06-08T15:05:24Z</time>
      </trkpt>
      <trkpt lat="44.63876" lon="0.86212">
        <ele>193</ele>
        <time>2019-06-08T15:05:44Z</time>
      </trkpt>
      <trkpt lat="44.63866" lon="0.86225">
        <ele>194</ele>
        <time>2019-06-08T15:05:55Z</time>
      </trkpt>
      <trkpt lat="44.63841" lon="0.86272">
        <ele>195</ele>
        <time>2019-06-08T15:06:28Z</time>
      </trkpt>
      <trkpt lat="44.63826" lon="0.86292">
        <ele>195</ele>
        <time>2019-06-08T15:06:45Z</time>
      </trkpt>
      <trkpt lat="44.63751" lon="0.86417">
        <ele>197</ele>
        <time>2019-06-08T15:08:18Z</time>
      </trkpt>
      <trkpt lat="44.63716" lon="0.86485">
        <ele>201</ele>
        <time>2019-06-08T15:09:06Z</time>
      </trkpt>
      <trkpt lat="44.63707" lon="0.86494">
        <ele>202</ele>
        <time>2019-06-08T15:09:15Z</time>
      </trkpt>
      <trkpt lat="44.63697" lon="0.86499">
        <ele>203</ele>
        <time>2019-06-08T15:09:23Z</time>
      </trkpt>
      <trkpt lat="44.63692" lon="0.86515">
        <ele>204</ele>
        <time>2019-06-08T15:09:33Z</time>
      </trkpt>
      <trkpt lat="44.63675" lon="0.86535">
        <ele>206</ele>
        <time>2019-06-08T15:09:51Z</time>
      </trkpt>
      <trkpt lat="44.63654" lon="0.86546">
        <ele>208</ele>
        <time>2019-06-08T15:10:09Z</time>
      </trkpt>
      <trkpt lat="44.63638" lon="0.86559">
        <ele>209</ele>
        <time>2019-06-08T15:10:24Z</time>
      </trkpt>
      <trkpt lat="44.63615" lon="0.866">
        <ele>209</ele>
        <time>2019-06-08T15:10:53Z</time>
      </trkpt>
      <trkpt lat="44.63599" lon="0.86655">
        <ele>206</ele>
        <time>2019-06-08T15:11:27Z</time>
      </trkpt>
      <trkpt lat="44.63575" lon="0.86724">
        <ele>201</ele>
        <time>2019-06-08T15:12:11Z</time>
      </trkpt>
      <trkpt lat="44.63563" lon="0.8675">
        <ele>198</ele>
        <time>2019-06-08T15:12:29Z</time>
      </trkpt>
      <trkpt lat="44.63559" lon="0.86768">
        <ele>197</ele>
        <time>2019-06-08T15:12:39Z</time>
      </trkpt>
      <trkpt lat="44.63535" lon="0.86815">
        <ele>195</ele>
        <time>2019-06-08T15:13:12Z</time>
      </trkpt>
      <trkpt lat="44.63523" lon="0.86825">
        <ele>194</ele>
        <time>2019-06-08T15:13:24Z</time>
      </trkpt>
      <trkpt lat="44.63479" lon="0.86842">
        <ele>191</ele>
        <time>2019-06-08T15:14:00Z</time>
      </trkpt>
      <trkpt lat="44.63469" lon="0.86855">
        <ele>190</ele>
        <time>2019-06-08T15:14:11Z</time>
      </trkpt>
      <trkpt lat="44.63471" lon="0.86904">
        <ele>189</ele>
        <time>2019-06-08T15:14:39Z</time>
      </trkpt>
      <trkpt lat="44.63465" lon="0.86914">
        <ele>189</ele>
        <time>2019-06-08T15:14:46Z</time>
      </trkpt>
      <trkpt lat="44.63449" lon="0.86926">
        <ele>188</ele>
        <time>2019-06-08T15:15:01Z</time>
      </trkpt>
      <trkpt lat="44.6341" lon="0.86949">
        <ele>186</ele>
        <time>2019-06-08T15:15:35Z</time>
      </trkpt>
      <trkpt lat="44.63359" lon="0.86964">
        <ele>189</ele>
        <time>2019-06-08T15:16:17Z</time>
      </trkpt>
      <trkpt lat="44.6333" lon="0.86982">
        <ele>192</ele>
        <time>2019-06-08T15:16:42Z</time>
      </trkpt>
      <trkpt lat="44.633" lon="0.8702">
        <ele>196</ele>
        <time>2019-06-08T15:17:14Z</time>
      </trkpt>
      <trkpt lat="44.63275" lon="0.87071">
        <ele>203</ele>
        <time>2019-06-08T15:17:50Z</time>
      </trkpt>
      <trkpt lat="44.63235" lon="0.87123">
        <ele>214</ele>
        <time>2019-06-08T15:18:33Z</time>
      </trkpt>
    </trkseg>
  </trk>
</gpx>